Time;durP1;ratioP1;P1;durP2;ratioP2;P2;SDS_P1;SDS_P2;PMS_P1;PMS_P2;Temp;Humidity;BMP_temperature;BMP_pressure;BME280_temperature;BME280_humidity;BME280_pressure;Samples;Min_cycle;Max_cycle;Signal;HPM_P1;HPM_P2
2023/03/16 00:02:09;;;;;;;9.48;4.80;;;;;;;5.60;100.00;101668.50;10420076;28;20077;-79
2023/03/16 00:07:10;;;;;;;8.70;4.78;;;;;;;5.60;100.00;101663.13;10401616;28;20037;-79
2023/03/16 00:12:14;;;;;;;7.40;5.75;;;;;;;5.60;100.00;101652.38;10419737;28;20041;-79
2023/03/16 00:17:18;;;;;;;8.38;4.57;;;;;;;5.62;100.00;101649.56;10418999;28;20033;-79
2023/03/16 00:22:25;;;;;;;8.70;5.03;;;;;;;5.57;100.00;101641.09;10419307;28;20112;-79
2023/03/16 00:27:26;;;;;;;6.85;5.18;;;;;;;5.62;100.00;101643.34;10418378;28;20036;-78
2023/03/16 00:32:28;;;;;;;6.45;5.82;;;;;;;5.68;100.00;101630.16;10422108;28;20060;-77
2023/03/16 00:37:28;;;;;;;5.28;4.80;;;;;;;5.71;100.00;101626.31;10420239;28;20033;-79
2023/03/16 00:42:29;;;;;;;7.45;4.50;;;;;;;5.68;100.00;101613.16;10418264;28;20044;-79
2023/03/16 00:47:30;;;;;;;7.47;5.75;;;;;;;5.69;100.00;101613.03;10418017;28;20115;-78
2023/03/16 00:52:31;;;;;;;8.90;5.07;;;;;;;5.72;100.00;101617.28;10416874;28;20120;-78
2023/03/16 00:57:31;;;;;;;7.88;5.25;;;;;;;5.69;100.00;101604.97;10416958;28;20115;-79
2023/03/16 01:02:35;;;;;;;10.68;5.50;;;;;;;5.76;100.00;101595.31;10417351;28;20033;-79
2023/03/16 01:07:36;;;;;;;7.88;4.78;;;;;;;5.78;100.00;101587.13;10416671;28;20041;-79
2023/03/16 01:12:36;;;;;;;5.53;4.60;;;;;;;5.82;100.00;101591.19;10417257;28;20033;-79
2023/03/16 01:17:37;;;;;;;6.90;6.25;;;;;;;5.75;100.00;101590.09;10415703;28;20410;-78
2023/03/16 01:22:37;;;;;;;9.60;5.32;;;;;;;5.71;100.00;101576.13;10416032;28;20041;-78
2023/03/16 01:27:38;;;;;;;8.57;5.03;;;;;;;5.81;100.00;101570.69;10416913;28;20025;-79
2023/03/16 01:32:38;;;;;;;10.48;6.07;;;;;;;5.82;100.00;101573.22;10416053;28;20049;-76
2023/03/16 01:37:39;;;;;;;6.47;5.25;;;;;;;5.80;100.00;101569.81;10416573;28;20040;-79
2023/03/16 01:42:47;;;;;;;13.50;6.80;;;;;;;5.80;100.00;101567.13;10398099;28;20049;-79
2023/03/16 01:47:47;;;;;;;5.65;5.15;;;;;;;5.86;100.00;101565.69;10416271;28;20129;-79
2023/03/16 01:52:47;;;;;;;6.30;5.68;;;;;;;5.91;100.00;101546.44;10416334;28;20381;-79
2023/03/16 01:57:48;;;;;;;16.35;6.15;;;;;;;5.90;100.00;101547.44;10414230;28;20088;-78
2023/03/16 02:02:51;;;;;;;15.15;6.63;;;;;;;5.85;100.00;101539.00;10415789;28;20539;-79
2023/03/16 02:07:57;;;;;;;10.93;5.78;;;;;;;5.75;100.00;101537.19;10415198;28;20536;-78
2023/03/16 02:12:58;;;;;;;13.88;8.10;;;;;;;5.60;100.00;101523.41;10414433;28;20033;-77
2023/03/16 02:17:59;;;;;;;6.97;6.28;;;;;;;5.58;100.00;101519.19;10397141;28;20046;-77
2023/03/16 02:22:59;;;;;;;7.68;6.30;;;;;;;5.54;100.00;101507.06;10398733;28;20072;-77
2023/03/16 02:28:18;;;;;;;9.73;6.55;;;;;;;5.56;100.00;101499.69;10397489;28;20025;-77
2023/03/16 02:33:18;;;;;;;11.25;5.88;;;;;;;5.54;100.00;101496.31;10423136;28;20471;-76
2023/03/16 02:38:19;;;;;;;10.13;6.93;;;;;;;5.53;100.00;101497.31;10421702;28;20048;-76
2023/03/16 02:43:21;;;;;;;6.53;5.95;;;;;;;5.48;100.00;101492.38;10421025;28;20048;-76
2023/03/16 02:48:34;;;;;;;10.18;7.07;;;;;;;5.51;100.00;101491.22;10424870;28;20099;-75
2023/03/16 02:53:34;;;;;;;13.70;6.53;;;;;;;5.49;100.00;101491.41;10407391;28;20029;-75
2023/03/16 02:58:35;;;;;;;12.00;6.90;;;;;;;5.50;100.00;101490.38;10421331;28;20385;-75
2023/03/16 03:03:35;;;;;;;9.85;5.07;;;;;;;5.41;100.00;101479.69;10421842;28;20381;-74
2023/03/16 03:08:36;;;;;;;7.30;6.15;;;;;;;5.37;100.00;101479.16;10421628;28;20034;-74
2023/03/16 03:13:42;;;;;;;10.02;6.53;;;;;;;5.30;100.00;101462.81;10420711;28;20476;-75
2023/03/16 03:18:42;;;;;;;13.98;6.75;;;;;;;5.31;100.00;101459.09;10421950;28;20038;-74
2023/03/16 03:23:45;;;;;;;9.50;6.25;;;;;;;5.22;100.00;101445.72;10420558;28;20033;-75
2023/03/16 03:28:45;;;;;;;8.23;6.60;;;;;;;5.18;100.00;101441.66;10420747;28;20049;-75
2023/03/16 03:33:46;;;;;;;10.65;6.97;;;;;;;5.27;100.00;101438.94;10419506;28;20029;-74
2023/03/16 03:38:48;;;;;;;9.43;7.18;;;;;;;5.24;100.00;101447.28;10420329;28;20120;-74
2023/03/16 03:43:48;;;;;;;5.75;5.15;;;;;;;5.32;100.00;101431.25;10419211;28;20462;-74
2023/03/16 03:48:49;;;;;;;10.63;6.60;;;;;;;5.39;100.00;101442.22;10418461;28;20121;-74
2023/03/16 03:53:50;;;;;;;8.98;7.60;;;;;;;5.33;100.00;101438.34;10420955;28;20041;-74
2023/03/16 03:58:50;;;;;;;6.13;5.10;;;;;;;5.36;100.00;101447.94;10420721;28;20091;-74
2023/03/16 04:03:51;;;;;;;9.95;6.85;;;;;;;5.31;100.00;101437.63;10420678;28;20469;-74
2023/03/16 04:08:53;;;;;;;7.40;6.55;;;;;;;5.38;100.00;101428.97;10419381;28;20061;-74
2023/03/16 04:13:53;;;;;;;10.60;6.90;;;;;;;5.35;100.00;101427.41;10419199;28;20034;-75
2023/03/16 04:18:53;;;;;;;6.63;4.75;;;;;;;5.37;100.00;101438.88;10419014;28;20067;-76
2023/03/16 04:23:54;;;;;;;6.72;5.40;;;;;;;5.34;100.00;101425.75;10419281;28;20042;-75
2023/03/16 04:28:54;;;;;;;5.28;4.85;;;;;;;5.28;100.00;101418.28;10418280;28;20417;-75
2023/03/16 04:33:54;;;;;;;9.18;5.82;;;;;;;5.22;100.00;101419.72;10417154;28;20030;-75
2023/03/16 04:38:55;;;;;;;11.82;5.45;;;;;;;5.05;100.00;101396.38;10418763;28;20041;-75
2023/03/16 04:43:56;;;;;;;14.48;6.32;;;;;;;5.08;100.00;101398.75;10400409;28;20461;-75
2023/03/16 04:48:57;;;;;;;11.85;5.28;;;;;;;5.00;100.00;101388.75;10418270;28;20235;-76
2023/03/16 04:53:57;;;;;;;5.20;4.28;;;;;;;4.94;100.00;101383.13;10399634;28;20049;-76
2023/03/16 04:58:57;;;;;;;15.63;6.30;;;;;;;4.82;100.00;101377.16;10416893;28;20042;-77
2023/03/16 05:04:01;;;;;;;4.63;4.07;;;;;;;4.80;100.00;101377.28;10401187;28;20033;-76
2023/03/16 05:09:03;;;;;;;5.53;5.03;;;;;;;4.76;100.00;101375.88;10416358;28;20045;-76
2023/03/16 05:14:04;;;;;;;4.97;3.22;;;;;;;4.75;100.00;101359.91;10416103;28;20069;-77
2023/03/16 05:19:05;;;;;;;5.70;4.65;;;;;;;4.74;100.00;101364.44;10415467;28;20504;-76
2023/03/16 05:24:05;;;;;;;11.02;4.20;;;;;;;4.75;100.00;101363.44;10416536;28;20068;-77
2023/03/16 05:29:06;;;;;;;6.05;3.40;;;;;;;4.79;100.00;101364.03;10414498;28;20051;-77
2023/03/16 05:34:06;;;;;;;4.93;2.60;;;;;;;4.84;100.00;101365.25;10326102;28;20148;-77
2023/03/16 05:39:10;;;;;;;4.05;2.92;;;;;;;4.93;100.00;101360.84;10415275;28;20033;-74
2023/03/16 05:44:10;;;;;;;10.38;5.32;;;;;;;4.95;100.00;101360.69;10415960;28;20095;-73
2023/03/16 05:49:11;;;;;;;5.82;2.83;;;;;;;4.95;100.00;101366.06;10397148;28;20114;-73
2023/03/16 05:54:12;;;;;;;5.70;3.80;;;;;;;4.96;100.00;101359.69;10415917;28;20041;-73
2023/03/16 05:59:13;;;;;;;4.38;3.75;;;;;;;4.99;100.00;101367.44;10417669;28;20038;-78
2023/03/16 06:04:13;;;;;;;10.30;3.00;;;;;;;5.01;100.00;101354.69;10414303;28;20041;-76
2023/03/16 06:09:14;;;;;;;5.50;4.45;;;;;;;5.01;100.00;101343.97;10396888;28;20038;-77
2023/03/16 06:14:14;;;;;;;6.32;3.92;;;;;;;4.95;100.00;101339.22;10415298;28;20042;-77
2023/03/16 06:19:14;;;;;;;6.72;3.67;;;;;;;5.02;100.00;101351.88;10413543;28;20049;-78
2023/03/16 06:24:15;;;;;;;8.85;3.13;;;;;;;5.01;100.00;101349.34;10397681;28;20100;-76
2023/03/16 06:29:15;;;;;;;4.95;3.28;;;;;;;5.01;100.00;101341.28;10413118;28;20068;-77
2023/03/16 06:34:15;;;;;;;2.97;2.78;;;;;;;5.00;100.00;101320.81;10413805;28;20033;-77
2023/03/16 06:39:16;;;;;;;6.55;3.67;;;;;;;4.99;100.00;101321.81;10414951;28;20081;-77
2023/03/16 06:44:16;;;;;;;4.88;4.20;;;;;;;5.01;100.00;101309.06;10412788;28;20405;-77
2023/03/16 06:49:17;;;;;;;6.53;3.42;;;;;;;4.98;100.00;101306.69;10413783;28;20124;-77
2023/03/16 06:54:17;;;;;;;4.72;2.60;;;;;;;4.99;100.00;101309.25;10414089;28;20061;-77
2023/03/16 06:59:17;;;;;;;4.93;3.25;;;;;;;5.02;100.00;101308.94;10413778;28;20042;-77
2023/03/16 07:04:18;;;;;;;7.07;2.53;;;;;;;5.04;100.00;101306.09;10413738;28;20107;-77
2023/03/16 07:09:18;;;;;;;3.67;3.38;;;;;;;5.08;100.00;101302.13;10413893;28;20446;-78
2023/03/16 07:14:21;;;;;;;10.75;2.80;;;;;;;5.19;100.00;101301.88;10414296;28;20033;-77
2023/03/16 07:19:22;;;;;;;5.68;3.03;;;;;;;5.38;100.00;101300.06;10421492;28;20049;-77
2023/03/16 07:24:22;;;;;;;7.75;3.38;;;;;;;5.43;100.00;101301.28;10420408;28;20105;-77
2023/03/16 07:29:22;;;;;;;5.20;2.83;;;;;;;5.53;100.00;101299.38;10419230;28;20050;-77
2023/03/16 07:34:23;;;;;;;8.45;4.43;;;;;;;5.63;100.00;101299.28;10420150;28;20140;-77
2023/03/16 07:39:23;;;;;;;5.38;3.22;;;;;;;5.70;100.00;101297.66;10421351;28;20381;-77
2023/03/16 07:44:24;;;;;;;8.45;2.83;;;;;;;5.76;100.00;101304.25;10419801;28;20056;-77
2023/03/16 07:49:24;;;;;;;8.55;3.40;;;;;;;5.77;100.00;101309.44;10418254;28;20468;-77
2023/03/16 07:54:25;;;;;;;13.40;3.22;;;;;;;5.91;100.00;101293.78;10401984;28;20033;-78
2023/03/16 07:59:25;;;;;;;3.00;2.80;;;;;;;6.20;100.00;101313.16;10418278;28;20038;-78
2023/03/16 08:04:26;;;;;;;2.97;2.65;;;;;;;6.35;100.00;101305.34;10419315;28;20030;-77
2023/03/16 08:09:26;;;;;;;4.03;3.65;;;;;;;6.43;100.00;101304.53;10419334;28;20088;-78
2023/03/16 08:14:27;;;;;;;3.67;2.17;;;;;;;6.43;100.00;101309.91;10418107;28;20112;-77
2023/03/16 08:19:28;;;;;;;6.65;3.40;;;;;;;6.56;100.00;101298.72;10418623;28;20041;-77
2023/03/16 08:24:29;;;;;;;5.90;2.85;;;;;;;6.68;100.00;101294.72;10400887;28;20033;-78
2023/03/16 08:29:33;;;;;;;3.40;3.10;;;;;;;6.91;100.00;101289.59;10416260;28;20050;-80
2023/03/16 08:34:35;;;;;;;7.32;3.28;;;;;;;7.08;100.00;101283.22;10418265;28;20123;-79
2023/03/16 08:39:35;;;;;;;7.53;3.72;;;;;;;7.31;100.00;101286.13;10417623;28;20136;-78
2023/03/16 08:44:35;;;;;;;2.63;2.05;;;;;;;7.47;100.00;101271.84;10416271;28;20033;-79
2023/03/16 08:49:36;;;;;;;6.53;3.08;;;;;;;7.76;100.00;101279.41;10418339;28;20427;-79
2023/03/16 08:54:36;;;;;;;14.25;3.47;;;;;;;8.00;100.00;101272.28;10417427;28;20137;-79
2023/03/16 08:59:37;;;;;;;2.75;2.25;;;;;;;8.31;100.00;101270.53;10415692;28;20095;-79
2023/03/16 09:04:37;;;;;;;3.70;2.40;;;;;;;8.70;100.00;101268.88;10400291;28;20029;-80
2023/03/16 09:09:39;;;;;;;2.53;2.33;;;;;;;9.69;100.00;101259.91;10416662;28;20069;-79
2023/03/16 09:14:39;;;;;;;2.70;1.92;;;;;;;10.34;100.00;101260.28;10415882;28;20035;-80
2023/03/16 09:19:39;;;;;;;6.47;1.98;;;;;;;10.07;100.00;101249.06;10415915;28;20474;-80
2023/03/16 09:24:40;;;;;;;3.47;3.05;;;;;;;10.96;100.00;101248.16;10416412;28;20048;-80
2023/03/16 09:29:41;;;;;;;2.05;1.95;;;;;;;11.04;100.00;101254.31;10431753;28;20427;-81
2023/03/16 09:34:41;;;;;;;2.72;2.53;;;;;;;11.05;100.00;101245.13;10416392;28;20079;-80
2023/03/16 09:39:42;;;;;;;2.50;2.25;;;;;;;11.18;100.00;101241.72;10414013;28;20559;-80
2023/03/16 09:45:13;;;;;;;2.38;2.17;;;;;;;10.99;100.00;101242.34;10414413;28;20088;-80
2023/03/16 09:50:26;;;;;;;3.53;2.22;;;;;;;10.60;100.00;101235.44;10400580;28;20504;-80
2023/03/16 09:55:30;;;;;;;11.50;3.35;;;;;;;10.88;100.00;101239.13;10398016;28;20071;-80
2023/03/16 10:00:38;;;;;;;3.88;2.10;;;;;;;10.73;100.00;101230.19;10398024;28;20041;-80
2023/03/16 10:05:39;;;;;;;3.65;2.40;;;;;;;10.78;100.00;101238.56;10397985;28;20373;-80
2023/03/16 10:11:08;;;;;;;5.88;1.88;;;;;;;11.00;100.00;101244.03;10414643;28;20091;-80
2023/03/16 10:16:34;;;;;;;6.78;3.58;;;;;;;11.13;100.00;101228.72;10413271;28;20030;-80
2023/03/16 10:21:38;;;;;;;2.97;2.10;;;;;;;11.32;100.00;101223.69;10412040;28;20044;-80
2023/03/16 10:26:39;;;;;;;6.38;2.00;;;;;;;11.18;100.00;101217.31;10412693;28;20034;-80
2023/03/16 10:31:40;;;;;;;3.83;2.28;;;;;;;11.54;100.00;101225.34;10380216;28;20107;-80
2023/03/16 10:36:41;;;;;;;8.07;3.42;;;;;;;11.44;100.00;101219.44;10414793;28;20034;-80
2023/03/16 10:41:44;;;;;;;7.05;2.70;;;;;;;11.52;100.00;101202.16;10398429;28;20032;-80
2023/03/16 10:46:49;;;;;;;12.32;2.38;;;;;;;11.38;100.00;101184.97;10412954;28;20095;-80
2023/03/16 10:51:50;;;;;;;5.78;2.25;;;;;;;11.48;100.00;101179.19;10401557;28;20430;-80
2023/03/16 10:56:50;;;;;;;2.95;2.00;;;;;;;11.33;100.00;101172.00;10422368;28;20029;-80
2023/03/16 11:01:51;;;;;;;3.60;2.00;;;;;;;11.35;100.00;101180.75;10405670;28;20128;-80
2023/03/16 11:06:55;;;;;;;1.75;1.65;;;;;;;11.31;100.00;101171.34;10422770;28;20038;-80
2023/03/16 11:11:55;;;;;;;6.35;2.50;;;;;;;11.57;100.00;101169.88;10421254;28;20116;-80
2023/03/16 11:17:00;;;;;;;4.30;2.35;;;;;;;11.50;100.00;101169.84;10425098;28;20461;-80
2023/03/16 11:22:08;;;;;;;4.35;1.75;;;;;;;11.39;100.00;101162.22;10425110;28;20140;-80
2023/03/16 11:27:22;;;;;;;8.32;2.13;;;;;;;11.48;100.00;101157.50;10396883;28;20029;-80
2023/03/16 11:32:26;;;;;;;2.45;1.88;;;;;;;11.83;100.00;101150.22;10426836;28;20049;-80
2023/03/16 11:37:41;;;;;;;4.00;2.13;;;;;;;12.02;100.00;101137.84;10428027;28;20033;-80
2023/03/16 11:43:13;;;;;;;2.80;1.85;;;;;;;12.60;100.00;101148.28;10433544;28;20041;-80
2023/03/16 11:48:45;;;;;;;2.67;1.77;;;;;;;13.39;93.69;101136.72;10424524;28;20385;-80
2023/03/16 11:53:47;;;;;;;3.85;2.10;;;;;;;13.38;85.87;101145.94;10428131;28;20072;-80
2023/03/16 11:58:50;;;;;;;5.38;1.38;;;;;;;13.65;100.00;101133.13;10422709;28;20397;-80
2023/03/16 12:03:57;;;;;;;4.65;1.67;;;;;;;13.75;98.97;101138.13;10419268;28;20124;-80
2023/03/16 12:09:15;;;;;;;2.08;1.83;;;;;;;13.06;77.18;101123.09;10423152;28;20507;-79
2023/03/16 12:14:19;;;;;;;5.18;1.75;;;;;;;13.14;94.76;101122.88;10420582;28;20029;-79
2023/03/16 12:19:23;;;;;;;5.30;2.30;;;;;;;13.18;81.53;101130.41;10417014;28;20025;-78
2023/03/16 12:24:26;;;;;;;3.35;2.00;;;;;;;13.71;96.67;101084.13;10418403;28;20039;-79
2023/03/16 12:29:32;;;;;;;2.05;1.67;;;;;;;14.27;84.71;101100.88;10400544;28;20049;-78
2023/03/16 12:34:39;;;;;;;9.85;1.80;;;;;;;14.34;80.93;101078.00;10418185;28;20029;-79
2023/03/16 12:39:55;;;;;;;;;;;;;;;14.37;96.17;101084.91;10417916;28;20065;-80
2023/03/16 12:45:01;;;;;;;3.42;1.92;;;;;;;14.12;83.87;101069.31;10417729;28;19931;-79
2023/03/16 12:50:06;;;;;;;2.50;1.83;;;;;;;14.61;89.71;101066.94;10416903;28;20041;-79
2023/03/16 12:55:14;;;;;;;7.70;2.92;;;;;;;14.06;92.98;101072.06;10416091;28;20045;-79
2023/03/16 13:00:15;;;;;;;1.25;1.13;;;;;;;13.86;86.22;101066.69;10401042;28;20026;-79
2023/03/16 13:05:17;;;;;;;5.65;1.73;;;;;;;14.07;83.55;101047.34;10415759;28;20046;-79
2023/03/16 13:10:19;;;;;;;3.50;1.58;;;;;;;14.43;75.89;101048.59;10399233;28;20054;-80
2023/03/16 13:15:21;;;;;;;10.95;2.13;;;;;;;14.37;82.30;101044.88;10416453;28;20080;-79
2023/03/16 13:20:28;;;;;;;2.63;1.50;;;;;;;14.34;83.52;101047.19;10416602;28;20045;-79
2023/03/16 13:25:29;;;;;;;6.03;1.92;;;;;;;14.25;81.14;101024.00;10399881;28;20037;-79
2023/03/16 13:30:32;;;;;;;4.45;1.67;;;;;;;14.21;93.64;101022.75;10416293;28;20120;-79
2023/03/16 13:35:32;;;;;;;1.75;1.65;;;;;;;14.10;95.89;101011.50;10414161;28;20443;-79
2023/03/16 13:40:34;;;;;;;1.60;1.50;;;;;;;14.32;94.57;101011.16;10416140;28;20041;-79
2023/03/16 13:45:36;;;;;;;1.95;1.75;;;;;;;14.17;90.75;101015.03;10415429;28;20037;-79
2023/03/16 13:50:40;;;;;;;1.58;1.48;;;;;;;13.91;82.00;101006.97;10413726;28;20052;-79
2023/03/16 13:55:43;;;;;;;5.70;2.00;;;;;;;13.92;97.14;101008.69;10417725;28;20363;-79
2023/03/16 14:00:44;;;;;;;2.40;1.75;;;;;;;14.00;81.79;100997.50;10414010;28;20029;-79
2023/03/16 14:05:45;;;;;;;2.60;1.80;;;;;;;14.17;76.51;100986.97;10397491;28;20543;-78
2023/03/16 14:10:45;;;;;;;5.82;1.65;;;;;;;14.39;76.66;100995.63;10413942;28;20083;-78
2023/03/16 14:15:46;;;;;;;5.78;1.70;;;;;;;13.95;77.37;100979.13;10415115;28;20430;-79
2023/03/16 14:20:50;;;;;;;1.27;1.17;;;;;;;14.17;69.27;100982.34;10414609;28;20065;-79
2023/03/16 14:25:50;;;;;;;1.42;1.33;;;;;;;14.81;69.87;100971.41;10397675;28;20144;-79
2023/03/16 14:30:52;;;;;;;6.97;1.92;;;;;;;14.89;75.82;100976.56;10397146;28;20071;-79
2023/03/16 14:35:54;;;;;;;4.25;1.65;;;;;;;15.03;74.55;100960.94;10413021;28;20094;-79
2023/03/16 14:40:56;;;;;;;8.50;2.75;;;;;;;15.23;71.31;100952.53;10414312;28;20026;-79
2023/03/16 14:45:56;;;;;;;5.93;2.47;;;;;;;15.04;71.62;100946.22;10396661;28;20083;-79
2023/03/16 14:51:01;;;;;;;8.48;1.77;;;;;;;15.00;84.21;100939.56;10396339;28;20095;-79
2023/03/16 14:56:02;;;;;;;2.78;1.75;;;;;;;15.15;70.75;100936.44;10413508;28;20034;-79
2023/03/16 15:01:03;;;;;;;9.07;1.40;;;;;;;15.05;69.81;100926.06;10413564;28;20485;-79
2023/03/16 15:06:04;;;;;;;1.10;1.10;;;;;;;15.03;86.69;100923.56;10413088;28;20111;-79
2023/03/16 15:11:05;;;;;;;1.40;1.35;;;;;;;14.50;67.87;100925.94;10414320;28;20131;-78
2023/03/16 15:16:06;;;;;;;5.97;1.48;;;;;;;13.92;77.46;100916.13;10411501;28;20104;-79
2023/03/16 15:21:28;;;;;;;2.50;1.13;;;;;;;13.73;68.21;100918.72;10412357;28;20033;-79
2023/03/16 15:26:29;;;;;;;2.25;1.55;;;;;;;13.49;81.81;100914.84;10411834;28;20473;-79
2023/03/16 15:31:30;;;;;;;9.80;1.60;;;;;;;13.40;89.98;100902.59;10411219;28;20057;-80
2023/03/16 15:36:30;;;;;;;1.35;0.88;;;;;;;13.17;80.70;100885.88;10414637;28;20044;-79
2023/03/16 15:41:31;;;;;;;12.48;1.35;;;;;;;13.14;91.02;100887.16;10419066;28;20081;-79
2023/03/16 15:46:31;;;;;;;4.10;1.30;;;;;;;13.06;82.19;100890.13;10421280;28;20158;-79
2023/03/16 15:51:32;;;;;;;2.97;1.90;;;;;;;12.95;82.08;100882.63;10419449;28;20041;-79
2023/03/16 15:56:33;;;;;;;2.22;1.50;;;;;;;12.78;74.32;100880.34;10419442;28;20084;-78
2023/03/16 16:01:45;;;;;;;2.13;1.85;;;;;;;12.67;73.91;100874.75;10384757;28;20037;-78
2023/03/16 16:06:46;;;;;;;2.50;1.20;;;;;;;12.70;71.71;100867.03;10420587;28;20032;-78
2023/03/16 16:11:47;;;;;;;0.80;0.80;;;;;;;12.78;72.29;100858.63;10423898;28;20045;-78
2023/03/16 16:16:49;;;;;;;4.95;1.00;;;;;;;12.78;68.24;100858.63;10419263;28;20037;-78
2023/03/16 16:21:49;;;;;;;3.70;1.27;;;;;;;12.68;81.26;100847.38;10417042;28;20497;-78
2023/03/16 16:26:49;;;;;;;1.60;1.45;;;;;;;12.56;83.01;100839.03;10417737;28;20057;-78
2023/03/16 16:31:50;;;;;;;2.20;0.93;;;;;;;12.46;81.46;100843.22;10419285;28;20461;-78
2023/03/16 16:36:52;;;;;;;2.03;1.80;;;;;;;12.33;81.03;100831.34;10416800;28;20519;-78
2023/03/16 16:41:53;;;;;;;1.75;1.67;;;;;;;12.24;84.11;100834.47;10418405;28;20033;-78
2023/03/16 16:46:54;;;;;;;1.02;1.02;;;;;;;12.17;82.58;100820.91;10401473;28;20111;-78
2023/03/16 16:51:54;;;;;;;1.58;1.48;;;;;;;12.16;92.52;100827.41;10424534;28;20061;-78
2023/03/16 16:56:56;;;;;;;2.03;1.40;;;;;;;12.03;90.49;100832.84;10418303;28;20029;-78
2023/03/16 17:01:56;;;;;;;3.67;1.10;;;;;;;11.88;89.16;100834.91;10416069;28;20022;-78
2023/03/16 17:06:59;;;;;;;3.75;1.75;;;;;;;11.81;95.88;100851.97;10400273;28;20033;-78
2023/03/16 17:12:00;;;;;;;3.78;1.70;;;;;;;11.60;86.74;100842.13;10401389;28;20042;-78
2023/03/16 17:17:00;;;;;;;2.70;1.70;;;;;;;11.60;94.17;100842.13;10399210;28;20187;-78
2023/03/16 17:22:01;;;;;;;4.78;1.60;;;;;;;11.47;93.82;100835.84;10382644;28;20219;-78
2023/03/16 17:27:01;;;;;;;4.63;2.03;;;;;;;11.43;97.06;100842.72;10416887;28;20033;-78
2023/03/16 17:32:03;;;;;;;2.35;1.73;;;;;;;11.30;94.42;100855.22;10414386;28;20132;-78
2023/03/16 17:37:07;;;;;;;1.58;1.48;;;;;;;11.27;96.88;100863.75;10398945;28;20030;-78
2023/03/16 17:42:16;;;;;;;2.22;2.00;;;;;;;11.22;100.00;100868.09;10417242;28;20033;-78
2023/03/16 17:47:20;;;;;;;2.80;2.40;;;;;;;11.08;99.27;100850.94;10398872;28;20474;-78
2023/03/16 17:52:22;;;;;;;1.98;1.85;;;;;;;10.97;96.18;100832.53;10416119;28;20116;-78
2023/03/16 17:57:31;;;;;;;6.85;1.58;;;;;;;10.89;99.35;100834.41;10413614;28;20428;-78
2023/03/16 18:02:55;;;;;;;2.38;1.88;;;;;;;10.73;95.37;100839.31;10396786;28;20472;-78
2023/03/16 18:07:58;;;;;;;1.92;1.60;;;;;;;10.70;97.58;100832.41;10415555;28;20025;-78
2023/03/16 18:13:05;;;;;;;3.38;2.20;;;;;;;10.60;97.42;100826.53;10396589;28;20108;-78
2023/03/16 18:18:08;;;;;;;5.13;2.38;;;;;;;10.57;100.00;100849.44;10414596;28;20037;-78
2023/03/16 18:23:19;;;;;;;2.25;1.98;;;;;;;10.60;100.00;100856.31;10415902;28;20041;-77
2023/03/16 18:28:20;;;;;;;2.83;1.92;;;;;;;10.50;100.00;100845.84;10413883;28;20088;-78
2023/03/16 18:33:40;;;;;;;3.20;2.65;;;;;;;10.40;100.00;100829.97;10415992;28;20108;-78
2023/03/16 18:38:42;;;;;;;3.55;2.30;;;;;;;10.35;99.37;100827.00;10412981;28;20126;-77
2023/03/16 18:43:43;;;;;;;4.38;2.72;;;;;;;10.30;99.96;100812.38;10381809;28;20131;-77
2023/03/16 18:48:43;;;;;;;6.78;2.63;;;;;;;10.23;100.00;100807.72;10416187;28;20049;-78
2023/03/16 18:53:43;;;;;;;2.60;1.73;;;;;;;10.16;100.00;100806.00;10415037;28;20381;-78
2023/03/16 18:58:45;;;;;;;3.90;1.80;;;;;;;10.15;99.67;100813.31;10414821;28;20026;-78
2023/03/16 19:03:46;;;;;;;2.85;1.80;;;;;;;10.05;98.73;100806.53;10413886;28;20414;-78
2023/03/16 19:08:46;;;;;;;8.05;1.77;;;;;;;10.04;94.70;100791.34;10412828;28;20109;-77
2023/03/16 19:13:47;;;;;;;1.90;1.80;;;;;;;10.15;97.04;100799.78;10419228;28;20065;-77
2023/03/16 19:18:47;;;;;;;2.05;1.70;;;;;;;10.10;94.46;100796.81;10421734;28;20061;-77
2023/03/16 19:23:57;;;;;;;1.75;1.50;;;;;;;10.03;91.25;100804.03;10421844;28;20030;-77
2023/03/16 19:28:58;;;;;;;1.55;1.45;;;;;;;10.03;89.14;100785.09;10403777;28;20045;-77
2023/03/16 19:33:58;;;;;;;2.28;2.08;;;;;;;10.03;91.46;100785.09;10386659;28;20037;-78
2023/03/16 19:38:59;;;;;;;3.92;2.22;;;;;;;9.91;90.67;100789.38;10420737;28;20041;-78
2023/03/16 19:44:02;;;;;;;2.05;1.70;;;;;;;9.89;86.42;100769.78;10418909;28;20043;-74
2023/03/16 19:49:03;;;;;;;3.55;2.08;;;;;;;9.89;88.75;100770.66;10418697;28;20037;-75
2023/03/16 19:54:03;;;;;;;2.20;1.42;;;;;;;9.86;90.51;100783.72;10418432;28;20534;-75
2023/03/16 19:59:04;;;;;;;3.50;1.52;;;;;;;9.83;87.73;100778.69;10421352;28;20132;-77
2023/03/16 20:04:08;;;;;;;2.13;1.27;;;;;;;9.76;82.24;100755.16;10401885;28;20036;-75
2023/03/16 20:09:09;;;;;;;2.95;2.13;;;;;;;9.85;85.11;100747.72;10401498;28;20084;-75
2023/03/16 20:14:25;;;;;;;2.17;1.85;;;;;;;9.78;85.69;100746.84;10402636;28;20072;-74
2023/03/16 20:19:25;;;;;;;4.47;2.00;;;;;;;9.66;81.97;100748.41;10419230;28;20469;-75
2023/03/16 20:24:27;;;;;;;3.15;2.25;;;;;;;9.63;82.95;100755.03;10400698;28;20302;-76
2023/03/16 20:29:30;;;;;;;1.27;1.23;;;;;;;9.69;83.05;100751.53;10418569;28;20089;-76
2023/03/16 20:34:30;;;;;;;1.70;1.55;;;;;;;9.70;87.37;100753.25;10385556;28;20033;-74
2023/03/16 20:39:35;;;;;;;1.63;1.50;;;;;;;9.56;81.44;100751.44;10419621;28;20045;-75
2023/03/16 20:44:35;;;;;;;6.32;1.73;;;;;;;9.60;83.81;100741.06;10418946;28;20072;-79
2023/03/16 20:49:36;;;;;;;3.30;1.35;;;;;;;9.62;87.05;100749.81;10417977;28;20389;-78
2023/03/16 20:54:37;;;;;;;2.85;1.92;;;;;;;9.53;84.11;100731.03;10418412;28;20064;-79
2023/03/16 20:59:38;;;;;;;8.40;2.13;;;;;;;9.50;82.93;100725.19;10418634;28;20037;-79
2023/03/16 21:04:41;;;;;;;3.33;2.15;;;;;;;9.50;86.38;100741.41;10416045;28;20381;-76
2023/03/16 21:09:42;;;;;;;2.20;2.00;;;;;;;9.44;84.44;100743.00;10417037;28;20484;-76
2023/03/16 21:14:42;;;;;;;2.03;1.80;;;;;;;9.40;82.58;100719.28;10416787;28;20120;-77
2023/03/16 21:19:42;;;;;;;2.17;1.73;;;;;;;9.42;86.00;100728.03;10417368;28;20377;-76
2023/03/16 21:24:43;;;;;;;4.35;1.95;;;;;;;9.41;85.29;100719.09;10416519;28;20036;-76
2023/03/16 21:29:43;;;;;;;6.25;2.65;;;;;;;9.37;84.84;100720.50;10416096;28;20077;-80
2023/03/16 21:34:44;;;;;;;3.15;2.35;;;;;;;9.40;85.04;100717.41;10414505;28;20392;-77
2023/03/16 21:39:45;;;;;;;2.55;2.35;;;;;;;9.43;86.37;100710.78;10415520;28;20462;-78
2023/03/16 21:44:46;;;;;;;4.40;2.92;;;;;;;9.47;88.59;100723.69;10416827;28;20032;-79
2023/03/16 21:49:46;;;;;;;3.20;2.72;;;;;;;9.48;89.22;100716.44;10416103;28;20029;-78
2023/03/16 21:54:46;;;;;;;4.65;2.20;;;;;;;9.51;86.12;100711.47;10414006;28;20029;-80
2023/03/16 21:59:47;;;;;;;2.58;2.38;;;;;;;9.62;86.81;100703.88;10415972;28;20037;-79
2023/03/16 22:04:48;;;;;;;2.47;2.35;;;;;;;9.59;84.58;100693.44;10415321;28;20038;-76
2023/03/16 22:09:49;;;;;;;2.85;2.05;;;;;;;9.60;86.70;100695.09;10413843;28;20044;-78
2023/03/16 22:14:49;;;;;;;2.88;2.55;;;;;;;9.65;86.69;100695.38;10413817;28;20044;-80
2023/03/16 22:19:50;;;;;;;5.70;2.30;;;;;;;9.64;86.42;100689.13;10396980;28;20069;-80
2023/03/16 22:24:51;;;;;;;4.18;2.75;;;;;;;9.70;87.93;100699.16;10382016;28;20549;-80
2023/03/16 22:29:51;;;;;;;2.70;2.17;;;;;;;9.64;85.46;100691.00;10413398;28;20057;-81
2023/03/16 22:34:54;;;;;;;4.80;2.70;;;;;;;9.66;86.48;100692.44;10418196;28;20049;-81
2023/03/16 22:39:57;;;;;;;9.45;2.55;;;;;;;9.64;89.05;100670.19;10414843;28;20038;-81
2023/03/16 22:44:57;;;;;;;5.18;2.92;;;;;;;9.53;86.35;100670.72;10414601;28;20052;-80
2023/03/16 22:49:58;;;;;;;3.88;2.58;;;;;;;9.49;86.61;100677.56;10417099;28;20026;-80
2023/03/16 22:54:58;;;;;;;7.28;2.38;;;;;;;9.53;89.39;100676.97;10396321;28;20037;-79
2023/03/16 22:59:59;;;;;;;8.63;3.28;;;;;;;9.48;89.73;100675.91;10420710;28;20060;-79
2023/03/16 23:04:59;;;;;;;4.38;3.08;;;;;;;9.42;90.22;100679.38;10404175;28;20025;-79
2023/03/16 23:10:01;;;;;;;4.28;3.42;;;;;;;9.37;90.24;100671.00;10422683;28;20067;-79